Delia, KS

5:28 PM CST on December 07, 2016 (GMT -0600)
MesoWest | | Change Station

Elev 980 ft 39.24 °N, 95.96 °W | Updated 48 minutes ago

Overcast
Overcast
24.0 °F
Feels Like 17 °F
N
6.0
Wind Variable Wind from NW
Gusts 8.0 mph

Today
High -- | Low -- °F
--% Chance of Precip.
Yesterday
High -- | Low -- °F
Precip. -- in
Pressure 30.42 in
Visibility 10.0 miles
Clouds Overcast 11000 ft
Windchill 17 °F
Dew Point Not available.
Humidity Not available.
Rainfall in
Snow Depth Not available.
7:30 AM 5:00 PM
First Quarter, 57% visible
METAR KTOP 072253Z 31008KT 10SM OVC110 M03/M08 A3038 RMK AO2 SLP299 T10331083
Pressure 30.42 in
Visibility 10.0 miles
Clouds Overcast 11000 ft
Windchill 17 °F
Dew Point Not available.
Humidity Not available.
Rainfall in
Snow Depth Not available.
7:30 AM 5:00 PM
First Quarter, 57% visible
METAR KTOP 072253Z 31008KT 10SM OVC110 M03/M08 A3038 RMK AO2 SLP299 T10331083

10-Day Weather Forecast

Almanac

Astronomy

Dec. 07, 2016 Rise Set
Actual Time
Civil Twilight
Nautical Twilight
Astronomical Twilight
Moon
Length of Visible Light
Length of Day
Tomorrow will be .
, % of the Moon is Illuminated

Today's Extremes

State Highs State Lows

Community

WunderPhotos

Upload Photos

1,956,219 photos uploaded!

WunderBlog® & News

Nearby

Air Quality

  Air Quality AQ Index Pollutant
Not available.

Snow Depth

Station Depth Elevation

Earthquake Activity

City Distance Mag. Time & Date
Minimum magnitude displayed is 2.5.

Coastal Water Temperatures

Place Temperature

Stations

Nearby Weather Stations

Station Location Temp. Windchill Dew Point Humidity Wind Precip. Elev Updated Type
                   

Watches & Warnings

There are currently no watches in effect.